ADDS METAR Data INFO
IDs: Format: Raw Decoded Include TAF

Data at: 1132 UTC 29 May 2017

KJXI 291115Z AUTO 33005KT 1SM BR 20/20 A2994 RMK AO2 T01980197
KJXI 291055Z AUTO 32009KT 3/4SM BR OVC002 20/20 A2994 RMK AO2 T01970196
KJXI 291035Z AUTO 33006KT 4SM BR 20/20 A2995 RMK AO2 T01970196
KJXI 291015Z AUTO 33005KT 5SM BR OVC003 20/20 A2995 RMK AO2 T01960195
KJXI 290955Z AUTO 33005KT 7SM SCT005 20/19 A2996 RMK AO2 T01950193
KJXI 290935Z AUTO 33003KT 7SM TS SCT050 20/19 A2997 RMK AO2 LTG DSNT NW T01950193
KJXI 290915Z AUTO 32003KT 7SM BKN050 20/19 A2996 RMK AO2 T01960193
KJXI 290855Z AUTO 00000KT 10SM TS SCT043 OVC050 20/19 A2996 RMK AO2 LTG DSNT NW T01960193
KJXI 290835Z AUTO 00000KT 10SM BKN040 OVC050 20/19 A2995 RMK AO2 T01970193
KJXI 290815Z AUTO 34003KT 10SM OVC033 20/19 A2997 RMK AO2 T01970192
KJXI 290755Z AUTO 00000KT 10SM TS OVC033 20/19 A2998 RMK AO2 LTG DSNT NW T01960191
KJXI 290735Z AUTO 00000KT 10SM OVC033 20/19 A2999 RMK AO2 T01970190
KJXI 290715Z AUTO 00000KT 10SM SCT028 OVC033 20/19 A3000 RMK AO2 T01980189
KJXI 290655Z AUTO 19004KT 10SM OVC026 20/19 A3002 RMK AO2 T01980191
KJXI 290635Z AUTO 19004KT 10SM SCT023 OVC028 20/19 A3003 RMK AO2 T02000191
KJXI 290615Z AUTO 20005KT 10SM BKN028 OVC036 20/19 A3003 RMK AO2 T02000189
KJXI 290555Z AUTO 00000KT 10SM SCT019 BKN028 OVC034 20/19 A3003 RMK AO2 LTG DSNT SE THRU SW 60001 T02000193 10215 20200 402660185
KJXI 290535Z AUTO 16004KT 10SM SCT006 OVC017 20/20 A3003 RMK AO2 LTG DSNT S T02010195
KJXI 290515Z AUTO 16004KT 10SM BKN006 OVC013 20/20 A3003 RMK AO2 LTG DSNT SE AND S T02020197
KJXI 290455Z AUTO 14003KT 10SM BKN004 BKN010 BKN036 21/20 A3000 RMK AO2 LTG DSNT S AND SW T02060203
KJXI 290435Z AUTO 16003KT 10SM SCT036 SCT055 21/21 A3000 RMK AO2 LTG DSNT SE AND S T02100208
KJXI 290415Z AUTO 18003KT 7SM BKN055 21/21 A3001 RMK AO2 LTG DSNT S T02100209
KJXI 290355Z AUTO 00000KT 5SM BR OVC055 21/21 A3000 RMK AO2 LTG DSNT SE AND S P0001 T02100210
KJXI 290335Z AUTO 00000KT 5SM BR BKN055 21/21 A3000 RMK AO2 LTG DSNT SE AND S T02100208
KJXI 290315Z AUTO 00000KT 7SM CLR 21/21 A2999 RMK AO2 LTG DSNT SE THRU SW T02120210
KJXI 290255Z AUTO 00000KT 7SM VCTS SCT045 21/21 A2997 RMK AO2 LTG DSNT S AND SW T02130210
KJXI 290235Z AUTO 00000KT 10SM SCT037 OVC043 21/21 A2995 RMK AO2 LTG DSNT SE AND S T02140210
KJXI 290215Z AUTO 00000KT 10SM OVC038 21/21 A2993 RMK AO2 LTG DSNT S T02140210
KJXI 290155Z AUTO 00000KT 10SM BKN040 BKN050 21/21 A2993 RMK AO2 LTG DSNT S T02130210
KJXI 290135Z AUTO 00000KT 10SM TS CLR 21/21 A2991 RMK AO2 LTG DSNT SE S AND NW T02130210
KJXI 290115Z AUTO 01004KT 7SM TS SCT033 SCT045 SCT100 21/21 A2990 RMK AO2 LTG DSNT S AND NW T02130210
KJXI 290055Z AUTO 00000KT 7SM VCTS BKN033 BKN045 21/21 A2992 RMK AO2 LTG DSNT E THRU S T02130210
KJXI 290035Z AUTO 00000KT 10SM SCT033 SCT095 21/21 A2992 RMK AO2 LTG DSNT SE AND S T02130208
KJXI 290015Z AUTO 09003KT 10SM BKN029 BKN034 BKN095 22/21 A2993 RMK AO2 LTG DSNT E THRU S T02150210
KJXI 282355Z AUTO 00000KT 10SM BKN027 BKN038 22/21 A2992 RMK AO2 LTG DSNT E THRU S 60121 T02150211 10266 20199
KJXI 282335Z AUTO 35004KT 10SM VCTS OVC027 22/21 A2990 RMK AO2 LTG DSNT E THRU SW T02150210
KJXI 282315Z AUTO 00000KT 10SM -VCTSDZ SCT005 BKN022 OVC027 22/21 A2994 RMK AO2 LTG DSNT NE THRU S T02160210
KJXI 282255Z AUTO 36004KT 10SM VCTSRA SCT005 BKN013 OVC065 21/21 A2987 RMK AO2 LTG DSNT ALQS P0005 T02120209
KJXI 282235Z AUTO 29005KT 10SM -TSRA SCT008 SCT044 BKN060 20/19 A2990 RMK AO2 LTG DSNT ALQS P0004 T02010194
KJXI 282215Z AUTO 15005KT 10SM TSRA SCT004 BKN047 OVC085 20/19 A2974 RMK AO2 LTG DSNT ALQS P0003 T02010185
KJXI 282155Z AUTO 04012G21KT 1SM +TSRA BKN004 OVC007 22/21 A2993 RMK AO2 LTG DSNT ALQS P0111 T02150211
KJXI 282135Z AUTO 34014G29KT 4SM +TSRA SCT004 BKN020 OVC037 22/21 A2990 RMK AO2 LTG DSNT ALQS P0018 T02200213
KJXI 282115Z AUTO 35008KT 10SM -TSRA SCT022 BKN036 OVC050 24/22 A2991 RMK AO2 LTG DSNT ALQS P0002 T02350215
KJXI 282055Z AUTO 03005KT 10SM -TSRA SCT038 BKN044 OVC050 25/21 A2991 RMK AO2 LTG DSNT W THRU NE P0001 60001 T02470211
KJXI 282035Z AUTO 36004KT 10SM VCTS OVC050 26/21 A2992 RMK AO2 LTG DSNT W AND NW T02600206
KJXI 282015Z AUTO 36003KT 10SM OVC050 27/20 A2994 RMK AO2 LTG DSNT W AND NW T02650202
KJXI 281955Z AUTO 00000KT 10SM OVC050 26/21 A2994 RMK AO2 LTG DSNT W T02640206
KJXI 281935Z AUTO 00000KT 10SM OVC050 26/20 A2995 RMK AO2 T02630202
KJXI 281915Z AUTO 00000KT 10SM OVC050 26/20 A2995 RMK AO2 LTG DSNT W T02610198
KJXI 281855Z AUTO 00000KT 10SM OVC050 26/19 A2995 RMK AO2 T02620191
KJXI 281835Z AUTO 00000KT 10SM SCT046 OVC050 26/19 A2995 RMK AO2 T02600194
KJXI 281815Z AUTO 00000KT 10SM BKN046 OVC050 26/19 A2997 RMK AO2 T02560189
KJXI 281755Z AUTO 13004KT 10SM OVC055 26/19 A2997 RMK AO2 60001 T02600190 10260 20185
KJXI 281735Z AUTO 15007KT 10SM OVC065 25/19 A2997 RMK AO2 T02520186
KJXI 281715Z AUTO 15006KT 10SM BKN065 BKN090 BKN110 25/19 A2997 RMK AO2 T02530191
KJXI 281655Z AUTO 15007KT 10SM SCT110 25/19 A2997 RMK AO2 T02500190
KJXI 281635Z AUTO 15009G14KT 100V170 10SM CLR 24/20 A2997 RMK AO2 T02430196
KJXI 281615Z AUTO 14006KT 10SM -RA SCT027 SCT037 SCT050 23/19 A2996 RMK AO2 T02270189
KJXI 281555Z AUTO 12009KT 10SM TS SCT075 22/19 A2996 RMK AO2 LTG DSNT E AND W T02190185
KJXI 281535Z AUTO 13009G15KT 10SM SCT018 SCT028 SCT036 21/18 A2997 RMK AO2 T02140184
KJXI 281515Z AUTO 12010G17KT 10SM -RA SCT018 SCT029 BKN080 21/18 A2999 RMK AO2 LTG DSNT E AND S T02050182
KJXI 281455Z AUTO 13005KT 10SM SCT045 SCT065 OVC080 20/18 A2999 RMK AO2 LTG DSNT E AND SE 60001 T02000181
KJXI 281435Z AUTO 13010G15KT 10SM TS SCT009 SCT050 OVC090 20/18 A2997 RMK AO2 LTG DSNT N THRU SE T01950179
KJXI 281415Z AUTO 12010G15KT 10SM VCTS SCT009 BKN085 BKN110 20/18 A2998 RMK AO2 LTG DSNT E AND W T01950180
KJXI 281355Z AUTO 12009KT 10SM SCT009 BKN080 BKN090 19/18 A2997 RMK AO2 LTG DSNT E S AND W P0001 T01900177
KJXI 281335Z AUTO 10006KT 10SM SCT011 SCT036 BKN080 19/18 A2998 RMK AO2 LTG DSNT E THRU W P0001 T01900176
KJXI 281315Z AUTO 12010G16KT 10SM -VCTSRA SCT024 SCT038 BKN050 19/18 A2996 RMK AO2 LTG DSNT NE THRU S P0001 T01860180
KJXI 281255Z AUTO 13007KT 10SM -VCTSRA BKN050 OVC060 19/18 A2997 RMK AO2 LTG DSNT ALQS T01870180
KJXI 281235Z AUTO 09005KT 10SM TS SCT007 OVC055 19/18 A2998 RMK AO2 LTG DSNT ALQS T01870181
KJXI 281215Z AUTO 07003KT 10SM TS SCT027 SCT060 OVC085 19/18 A2996 RMK AO2 LTG DSNT ALQS T01860181
KJXI 281155Z AUTO 13006KT 10SM -VCTSRA SCT030 BKN060 OVC085 19/18 A2995 RMK AO2 LTG DSNT ALQS P0017 60038 70038 T01860180 10251 20185
KJXI 281135Z AUTO 10005KT 10SM -VCTSRA SCT025 BKN048 OVC060 19/18 A2995 RMK AO2 LTG DSNT ALQS P0016 T01850180
KJXI 281115Z AUTO 03007KT 10SM VCTSRA SCT045 OVC050 19/18 A2997 RMK AO2 LTG DSNT ALQS P0002 T01870180
KJXI 281055Z AUTO 00000KT 10SM -TSRA OVC049 19/18 A2996 RMK AO2 LTG DSNT ALQS P0004 T01900181
KJXI 281035Z AUTO 06003KT 10SM -TSRA SCT021 OVC049 19/18 A2995 RMK AO2 LTG DSNT ALQS P0004 T01900179
KJXI 281015Z AUTO 00000KT 10SM TSRA BKN021 BKN028 OVC040 19/18 A2995 RMK AO2 LTG DSNT ALQS P0002 T01920179
KJXI 280955Z AUTO 06005KT 10SM -TSRA SCT030 SCT035 OVC040 19/18 A2995 RMK AO2 LTG DSNT ALQS P0014 T01930178
KJXI 280935Z AUTO 36013G21KT 10SM TSRA SCT030 BKN041 OVC060 21/18 A2991 RMK AO2 LTG DSNT ALQS P0003 T02080177
KJXI 280915Z AUTO 36012G23KT 340V040 10SM VCTS SCT018 BKN031 OVC055 22/19 A2991 RMK AO2 LTG DSNT ALQS T02220187
KJXI 280855Z AUTO 02006KT 10SM TS SCT020 BKN028 OVC033 24/23 A2989 RMK AO2 LTG DSNT ALQS P0003 60003 T02420225
KJXI 280835Z AUTO 35008KT 10SM TS BKN013 OVC020 25/23 A2988 RMK AO2 LTG DSNT ALQS T02470225
KJXI 280815Z AUTO 34009KT 10SM OVC015 25/23 A2987 RMK AO2 LTG DSNT SW THRU NE T02450225
KJXI 280755Z AUTO 19006KT 10SM VCTS OVC015 25/22 A2980 RMK AO2 LTG DSNT N AND NE T02450223
KJXI 280735Z AUTO 19007KT 10SM TS OVC013 25/23 A2980 RMK AO2 LTG DSNT N AND NW T02450225
KJXI 280715Z AUTO 18009G15KT 10SM OVC013 25/23 A2979 RMK AO2 LTG DSNT W THRU N T02450225
KJXI 280655Z AUTO 17009KT 10SM OVC013 25/23 A2980 RMK AO2 LTG DSNT N T02460226
KJXI 280635Z AUTO 18009G15KT 10SM BKN013 OVC023 25/23 A2980 RMK AO2 LTG DSNT NW T02470226
KJXI 280615Z AUTO 16008KT 10SM SCT017 BKN025 BKN030 25/23 A2980 RMK AO2 LTG DSNT N T02500227
KJXI 280555Z AUTO 16010G15KT 10SM BKN025 BKN033 25/23 A2979 RMK AO2 T02510228 10298 20251 403010240
KJXI 280535Z AUTO 16006KT 10SM SCT022 BKN027 BKN035 26/23 A2980 RMK AO2 T02550230
KJXI 280515Z AUTO 17007KT 10SM SCT027 BKN033 BKN039 26/23 A2981 RMK AO2 T02600230
KJXI 280455Z AUTO 18008G15KT 10SM BKN030 BKN036 26/23 A2981 RMK AO2 T02610230
KJXI 280435Z AUTO 18009KT 10SM SCT031 BKN036 26/23 A2980 RMK AO2 T02640231
KJXI 280415Z AUTO 18010G15KT 10SM SCT031 BKN038 BKN100 27/23 A2981 RMK AO2 T02660233
KJXI 280355Z AUTO 17010G14KT 10SM SCT031 BKN037 BKN044 27/24 A2980 RMK AO2 T02680235
KJXI 280335Z AUTO 17010G15KT 10SM SCT027 SCT032 BKN037 27/24 A2980 RMK AO2 T02710236
KJXI 280315Z AUTO 16008G14KT 10SM SCT034 SCT047 27/24 A2980 RMK AO2 T02720237
KJXI 280255Z AUTO 16007KT 10SM SCT030 SCT037 BKN045 27/24 A2981 RMK AO2 T02730240
KJXI 280235Z AUTO 15006KT 10SM SCT038 OVC045 28/24 A2981 RMK AO2 T02770240
KJXI 280215Z AUTO 15005KT 10SM SCT038 OVC045 28/24 A2980 RMK AO2 T02810240
KJXI 280155Z AUTO 16006KT 10SM SCT037 OVC043 28/24 A2979 RMK AO2 T02820239
KJXI 280135Z AUTO 17007KT 10SM TS SCT033 OVC043 28/24 A2979 RMK AO2 LTG DSNT NW T02840240
KJXI 280110Z AUTO 16005KT 10SM TS SCT036 BKN045 BKN055 29/24 A2980 RMK AO2 LTG DSNT NW T02850242
KJXI 280055Z AUTO 15006KT 10SM SCT036 BKN043 29/24 A2980 RMK AO2 T02870243
KJXI 280035Z AUTO 16005KT 10SM SCT032 BKN039 29/25 A2980 RMK AO2 T02910245
KJXI 280015Z AUTO 15005KT 10SM SCT030 SCT037 BKN043 30/25 A2980 RMK AO2 T02950246
KJXI 272355Z AUTO 16006KT 7SM SCT035 BKN041 BKN050 30/25 A2980 RMK AO2 T02980247 10301 20286
KJXI 272335Z AUTO 16004KT 7SM TS SCT036 SCT041 OVC050 30/25 A2981 RMK AO2 LTG DSNT NW T02960250


Page loaded:  11:32 UTC  |   04:32 AM Pacific  |   05:32 AM Mountain  |   06:32 AM Central  |   07:32 AM Eastern

 

ADVISORIES

FORECASTS

FORECASTS

OBSERVATIONS

USER TOOLS

ABOUT US